Terminal Aerodrome Forecast
Issued by NWS

Home | Current Version | Previous Version | Text Only | Print | Product List | Glossary On
Versions: 1 2 3 4 5 6 7 8 9 10 11 12 13 14 15 16 17 18 19 20 21 22 23 24 25
000
FTUS44 KEWX 252340
TAFSSF
TAF
KSSF 252340Z 2600/2624 14010KT P6SM SCT035 BKN050
     FM260300 13009KT P6SM OVC015
     FM260900 14008KT P6SM VCSH OVC009
     FM261400 15008KT P6SM OVC015
     FM261800 16010KT P6SM BKN035=

USA.gov is the U.S. government's official web portal to all federal, state and local government web resources and services.